sensor_id;sensor_type;location;lat;lon;timestamp;P1;durP1;ratioP1;P2;durP2;ratioP2
11646;SDS011;5880;52.342;9.662;2022-08-19T00:01:56;4.90;;;4.20;;
11646;SDS011;5880;52.342;9.662;2022-08-19T00:04:24;4.32;;;3.92;;
11646;SDS011;5880;52.342;9.662;2022-08-19T00:06:59;3.78;;;3.42;;
11646;SDS011;5880;52.342;9.662;2022-08-19T00:09:25;4.03;;;3.67;;
11646;SDS011;5880;52.342;9.662;2022-08-19T00:11:53;4.47;;;3.70;;
11646;SDS011;5880;52.342;9.662;2022-08-19T00:14:23;4.53;;;4.05;;
11646;SDS011;5880;52.342;9.662;2022-08-19T00:16:51;5.07;;;3.90;;
11646;SDS011;5880;52.342;9.662;2022-08-19T00:19:19;4.10;;;3.80;;
11646;SDS011;5880;52.342;9.662;2022-08-19T00:21:46;4.18;;;3.83;;
11646;SDS011;5880;52.342;9.662;2022-08-19T00:24:13;5.28;;;4.13;;
11646;SDS011;5880;52.342;9.662;2022-08-19T00:26:41;4.47;;;3.88;;
11646;SDS011;5880;52.342;9.662;2022-08-19T00:29:11;5.55;;;4.32;;
11646;SDS011;5880;52.342;9.662;2022-08-19T00:31:40;4.40;;;4.00;;
11646;SDS011;5880;52.342;9.662;2022-08-19T00:34:07;4.30;;;3.85;;
11646;SDS011;5880;52.342;9.662;2022-08-19T00:36:34;5.43;;;4.40;;
11646;SDS011;5880;52.342;9.662;2022-08-19T00:39:02;4.30;;;3.90;;
11646;SDS011;5880;52.342;9.662;2022-08-19T00:41:28;4.45;;;3.88;;
11646;SDS011;5880;52.342;9.662;2022-08-19T00:43:58;4.70;;;4.25;;
11646;SDS011;5880;52.342;9.662;2022-08-19T00:46:38;6.20;;;4.03;;
11646;SDS011;5880;52.342;9.662;2022-08-19T00:52:17;4.22;;;3.83;;
11646;SDS011;5880;52.342;9.662;2022-08-19T00:54:55;4.32;;;3.95;;
11646;SDS011;5880;52.342;9.662;2022-08-19T00:57:30;5.35;;;4.25;;
11646;SDS011;5880;52.342;9.662;2022-08-19T01:00:11;4.88;;;4.18;;
11646;SDS011;5880;52.342;9.662;2022-08-19T01:02:41;4.22;;;3.92;;
11646;SDS011;5880;52.342;9.662;2022-08-19T01:05:09;4.93;;;4.43;;
11646;SDS011;5880;52.342;9.662;2022-08-19T01:07:41;5.22;;;4.32;;
11646;SDS011;5880;52.342;9.662;2022-08-19T01:10:08;5.70;;;4.50;;
11646;SDS011;5880;52.342;9.662;2022-08-19T01:12:39;5.20;;;4.45;;
11646;SDS011;5880;52.342;9.662;2022-08-19T01:15:07;4.85;;;3.92;;
11646;SDS011;5880;52.342;9.662;2022-08-19T01:17:38;4.75;;;4.28;;
11646;SDS011;5880;52.342;9.662;2022-08-19T01:20:05;5.53;;;4.13;;
11646;SDS011;5880;52.342;9.662;2022-08-19T01:22:38;4.80;;;4.25;;
11646;SDS011;5880;52.342;9.662;2022-08-19T01:25:20;5.15;;;4.03;;
11646;SDS011;5880;52.342;9.662;2022-08-19T01:27:53;4.40;;;3.97;;
11646;SDS011;5880;52.342;9.662;2022-08-19T01:30:22;6.05;;;4.68;;
11646;SDS011;5880;52.342;9.662;2022-08-19T01:32:55;5.10;;;4.45;;
11646;SDS011;5880;52.342;9.662;2022-08-19T01:35:24;5.18;;;4.68;;
11646;SDS011;5880;52.342;9.662;2022-08-19T01:38:03;5.78;;;4.82;;
11646;SDS011;5880;52.342;9.662;2022-08-19T01:40:34;5.18;;;4.68;;
11646;SDS011;5880;52.342;9.662;2022-08-19T01:43:04;5.00;;;4.50;;
11646;SDS011;5880;52.342;9.662;2022-08-19T01:45:31;5.38;;;4.10;;
11646;SDS011;5880;52.342;9.662;2022-08-19T01:47:59;5.05;;;4.60;;
11646;SDS011;5880;52.342;9.662;2022-08-19T01:50:26;6.35;;;4.60;;
11646;SDS011;5880;52.342;9.662;2022-08-19T01:52:53;5.10;;;4.60;;
11646;SDS011;5880;52.342;9.662;2022-08-19T01:55:20;4.75;;;4.32;;
11646;SDS011;5880;52.342;9.662;2022-08-19T01:57:49;4.85;;;4.40;;
11646;SDS011;5880;52.342;9.662;2022-08-19T02:00:22;4.68;;;4.28;;
11646;SDS011;5880;52.342;9.662;2022-08-19T02:02:50;4.20;;;3.78;;
11646;SDS011;5880;52.342;9.662;2022-08-19T02:05:16;4.20;;;3.90;;
11646;SDS011;5880;52.342;9.662;2022-08-19T02:07:43;5.85;;;4.22;;
11646;SDS011;5880;52.342;9.662;2022-08-19T02:10:14;5.60;;;4.30;;
11646;SDS011;5880;52.342;9.662;2022-08-19T02:12:45;4.93;;;4.25;;
11646;SDS011;5880;52.342;9.662;2022-08-19T02:15:11;4.30;;;3.90;;
11646;SDS011;5880;52.342;9.662;2022-08-19T02:17:37;4.55;;;4.15;;
11646;SDS011;5880;52.342;9.662;2022-08-19T02:20:04;4.80;;;4.35;;
11646;SDS011;5880;52.342;9.662;2022-08-19T02:22:31;4.68;;;4.25;;
11646;SDS011;5880;52.342;9.662;2022-08-19T02:24:57;4.95;;;4.47;;
11646;SDS011;5880;52.342;9.662;2022-08-19T02:27:23;4.63;;;4.20;;
11646;SDS011;5880;52.342;9.662;2022-08-19T02:29:49;4.72;;;4.20;;
11646;SDS011;5880;52.342;9.662;2022-08-19T02:32:17;4.65;;;4.25;;
11646;SDS011;5880;52.342;9.662;2022-08-19T02:34:44;4.68;;;4.22;;
11646;SDS011;5880;52.342;9.662;2022-08-19T02:37:11;5.55;;;4.55;;
11646;SDS011;5880;52.342;9.662;2022-08-19T02:39:56;4.43;;;4.03;;
11646;SDS011;5880;52.342;9.662;2022-08-19T02:42:22;5.05;;;4.60;;
11646;SDS011;5880;52.342;9.662;2022-08-19T02:44:48;5.20;;;4.10;;
11646;SDS011;5880;52.342;9.662;2022-08-19T02:47:14;4.68;;;4.20;;
11646;SDS011;5880;52.342;9.662;2022-08-19T02:49:39;4.60;;;4.20;;
11646;SDS011;5880;52.342;9.662;2022-08-19T02:52:06;4.50;;;4.10;;
11646;SDS011;5880;52.342;9.662;2022-08-19T02:54:32;5.00;;;4.50;;
11646;SDS011;5880;52.342;9.662;2022-08-19T02:56:57;5.13;;;4.13;;
11646;SDS011;5880;52.342;9.662;2022-08-19T02:59:23;4.38;;;3.97;;
11646;SDS011;5880;52.342;9.662;2022-08-19T03:01:51;4.80;;;4.20;;
11646;SDS011;5880;52.342;9.662;2022-08-19T03:04:17;4.22;;;3.83;;
11646;SDS011;5880;52.342;9.662;2022-08-19T03:06:45;4.97;;;4.07;;
11646;SDS011;5880;52.342;9.662;2022-08-19T03:09:12;5.15;;;3.75;;
11646;SDS011;5880;52.342;9.662;2022-08-19T03:11:39;4.55;;;4.18;;
11646;SDS011;5880;52.342;9.662;2022-08-19T03:14:06;4.65;;;4.22;;
11646;SDS011;5880;52.342;9.662;2022-08-19T03:16:36;4.30;;;3.78;;
11646;SDS011;5880;52.342;9.662;2022-08-19T03:19:12;3.83;;;3.53;;
11646;SDS011;5880;52.342;9.662;2022-08-19T03:21:39;4.70;;;4.10;;
11646;SDS011;5880;52.342;9.662;2022-08-19T03:24:06;4.70;;;4.13;;
11646;SDS011;5880;52.342;9.662;2022-08-19T03:26:33;4.22;;;3.83;;
11646;SDS011;5880;52.342;9.662;2022-08-19T03:29:03;5.60;;;4.15;;
11646;SDS011;5880;52.342;9.662;2022-08-19T03:31:29;4.38;;;3.85;;
11646;SDS011;5880;52.342;9.662;2022-08-19T03:33:56;4.40;;;3.97;;
11646;SDS011;5880;52.342;9.662;2022-08-19T03:36:23;4.57;;;4.15;;
11646;SDS011;5880;52.342;9.662;2022-08-19T03:38:53;5.50;;;3.85;;
11646;SDS011;5880;52.342;9.662;2022-08-19T03:41:25;4.43;;;4.03;;
11646;SDS011;5880;52.342;9.662;2022-08-19T03:43:57;4.38;;;3.97;;
11646;SDS011;5880;52.342;9.662;2022-08-19T03:46:25;4.53;;;3.50;;
11646;SDS011;5880;52.342;9.662;2022-08-19T03:48:54;4.95;;;3.67;;
11646;SDS011;5880;52.342;9.662;2022-08-19T03:51:25;4.15;;;3.75;;
11646;SDS011;5880;52.342;9.662;2022-08-19T03:53:59;3.97;;;3.60;;
11646;SDS011;5880;52.342;9.662;2022-08-19T03:56:28;3.80;;;3.42;;
11646;SDS011;5880;52.342;9.662;2022-08-19T03:58:56;3.88;;;3.53;;
11646;SDS011;5880;52.342;9.662;2022-08-19T04:01:25;3.90;;;3.55;;
11646;SDS011;5880;52.342;9.662;2022-08-19T04:03:53;3.58;;;3.28;;
11646;SDS011;5880;52.342;9.662;2022-08-19T04:06:26;4.20;;;3.80;;
11646;SDS011;5880;52.342;9.662;2022-08-19T04:08:59;3.92;;;3.53;;
11646;SDS011;5880;52.342;9.662;2022-08-19T04:11:29;3.75;;;3.45;;
11646;SDS011;5880;52.342;9.662;2022-08-19T04:14:00;3.97;;;3.20;;
11646;SDS011;5880;52.342;9.662;2022-08-19T04:16:26;4.15;;;3.30;;
11646;SDS011;5880;52.342;9.662;2022-08-19T04:18:54;3.85;;;3.45;;
11646;SDS011;5880;52.342;9.662;2022-08-19T04:21:22;3.95;;;3.55;;
11646;SDS011;5880;52.342;9.662;2022-08-19T04:23:51;3.40;;;3.08;;
11646;SDS011;5880;52.342;9.662;2022-08-19T04:26:18;4.13;;;3.35;;
11646;SDS011;5880;52.342;9.662;2022-08-19T04:28:48;3.33;;;3.03;;
11646;SDS011;5880;52.342;9.662;2022-08-19T04:31:16;3.53;;;3.22;;
11646;SDS011;5880;52.342;9.662;2022-08-19T04:33:47;3.30;;;3.00;;
11646;SDS011;5880;52.342;9.662;2022-08-19T04:36:17;4.38;;;3.42;;
11646;SDS011;5880;52.342;9.662;2022-08-19T04:38:47;3.53;;;3.22;;
11646;SDS011;5880;52.342;9.662;2022-08-19T04:41:14;3.85;;;3.47;;
11646;SDS011;5880;52.342;9.662;2022-08-19T04:43:59;6.15;;;3.67;;
11646;SDS011;5880;52.342;9.662;2022-08-19T04:46:25;3.85;;;3.55;;
11646;SDS011;5880;52.342;9.662;2022-08-19T04:48:51;3.67;;;3.38;;
11646;SDS011;5880;52.342;9.662;2022-08-19T04:51:18;4.00;;;3.67;;
11646;SDS011;5880;52.342;9.662;2022-08-19T04:53:45;3.65;;;3.35;;
11646;SDS011;5880;52.342;9.662;2022-08-19T04:56:12;6.13;;;4.45;;
11646;SDS011;5880;52.342;9.662;2022-08-19T04:58:41;4.18;;;3.65;;
11646;SDS011;5880;52.342;9.662;2022-08-19T05:01:11;4.47;;;4.07;;
11646;SDS011;5880;52.342;9.662;2022-08-19T05:03:50;5.13;;;3.80;;
11646;SDS011;5880;52.342;9.662;2022-08-19T05:06:18;4.90;;;4.40;;
11646;SDS011;5880;52.342;9.662;2022-08-19T05:08:46;4.30;;;3.90;;
11646;SDS011;5880;52.342;9.662;2022-08-19T05:11:14;4.97;;;4.10;;
11646;SDS011;5880;52.342;9.662;2022-08-19T05:13:44;5.30;;;4.43;;
11646;SDS011;5880;52.342;9.662;2022-08-19T05:16:12;4.97;;;4.47;;
11646;SDS011;5880;52.342;9.662;2022-08-19T05:18:39;6.20;;;4.72;;
11646;SDS011;5880;52.342;9.662;2022-08-19T05:21:24;6.70;;;4.60;;
11646;SDS011;5880;52.342;9.662;2022-08-19T05:24:09;5.93;;;5.32;;
11646;SDS011;5880;52.342;9.662;2022-08-19T05:26:38;5.95;;;5.35;;
11646;SDS011;5880;52.342;9.662;2022-08-19T05:29:07;6.38;;;5.38;;
11646;SDS011;5880;52.342;9.662;2022-08-19T05:31:34;7.35;;;6.03;;
11646;SDS011;5880;52.342;9.662;2022-08-19T05:34:01;5.93;;;5.32;;
11646;SDS011;5880;52.342;9.662;2022-08-19T05:36:32;6.80;;;6.00;;
11646;SDS011;5880;52.342;9.662;2022-08-19T05:39:03;7.97;;;6.20;;
11646;SDS011;5880;52.342;9.662;2022-08-19T05:41:29;6.18;;;5.32;;
11646;SDS011;5880;52.342;9.662;2022-08-19T05:43:56;7.00;;;5.70;;
11646;SDS011;5880;52.342;9.662;2022-08-19T05:46:23;6.32;;;5.72;;
11646;SDS011;5880;52.342;9.662;2022-08-19T05:48:49;7.47;;;5.75;;
11646;SDS011;5880;52.342;9.662;2022-08-19T05:51:15;6.20;;;5.60;;
11646;SDS011;5880;52.342;9.662;2022-08-19T05:53:41;6.60;;;5.68;;
11646;SDS011;5880;52.342;9.662;2022-08-19T05:56:11;6.78;;;5.63;;
11646;SDS011;5880;52.342;9.662;2022-08-19T05:58:40;6.60;;;5.72;;
11646;SDS011;5880;52.342;9.662;2022-08-19T06:01:10;6.50;;;5.90;;
11646;SDS011;5880;52.342;9.662;2022-08-19T06:03:42;9.07;;;6.03;;
11646;SDS011;5880;52.342;9.662;2022-08-19T06:06:10;7.65;;;6.57;;
11646;SDS011;5880;52.342;9.662;2022-08-19T06:08:38;7.03;;;5.82;;
11646;SDS011;5880;52.342;9.662;2022-08-19T06:11:15;7.72;;;6.05;;
11646;SDS011;5880;52.342;9.662;2022-08-19T06:13:50;7.10;;;6.07;;
11646;SDS011;5880;52.342;9.662;2022-08-19T06:16:19;7.55;;;6.35;;
11646;SDS011;5880;52.342;9.662;2022-08-19T06:18:47;6.72;;;6.03;;
11646;SDS011;5880;52.342;9.662;2022-08-19T06:21:16;7.28;;;6.47;;
11646;SDS011;5880;52.342;9.662;2022-08-19T06:23:47;6.93;;;6.03;;
11646;SDS011;5880;52.342;9.662;2022-08-19T06:26:14;6.70;;;6.10;;
11646;SDS011;5880;52.342;9.662;2022-08-19T06:28:41;7.82;;;7.03;;
11646;SDS011;5880;52.342;9.662;2022-08-19T06:31:12;7.07;;;6.10;;
11646;SDS011;5880;52.342;9.662;2022-08-19T06:33:45;6.63;;;5.78;;
11646;SDS011;5880;52.342;9.662;2022-08-19T06:36:22;8.77;;;6.65;;
11646;SDS011;5880;52.342;9.662;2022-08-19T06:38:58;7.95;;;7.00;;
11646;SDS011;5880;52.342;9.662;2022-08-19T06:41:43;7.50;;;6.38;;
11646;SDS011;5880;52.342;9.662;2022-08-19T06:44:12;7.43;;;6.63;;
11646;SDS011;5880;52.342;9.662;2022-08-19T06:46:39;6.68;;;5.97;;
11646;SDS011;5880;52.342;9.662;2022-08-19T06:49:06;7.72;;;6.63;;
11646;SDS011;5880;52.342;9.662;2022-08-19T06:51:35;7.57;;;6.78;;
11646;SDS011;5880;52.342;9.662;2022-08-19T06:54:01;6.97;;;6.28;;
11646;SDS011;5880;52.342;9.662;2022-08-19T06:56:28;7.55;;;6.78;;
11646;SDS011;5880;52.342;9.662;2022-08-19T06:58:58;7.93;;;6.28;;
11646;SDS011;5880;52.342;9.662;2022-08-19T07:01:35;6.90;;;6.07;;
11646;SDS011;5880;52.342;9.662;2022-08-19T07:04:03;6.82;;;6.13;;
11646;SDS011;5880;52.342;9.662;2022-08-19T07:06:34;6.72;;;6.03;;
11646;SDS011;5880;52.342;9.662;2022-08-19T07:09:03;6.75;;;5.88;;
11646;SDS011;5880;52.342;9.662;2022-08-19T07:11:33;9.43;;;6.72;;
11646;SDS011;5880;52.342;9.662;2022-08-19T07:14:00;6.40;;;5.80;;
11646;SDS011;5880;52.342;9.662;2022-08-19T07:16:26;7.20;;;6.15;;
11646;SDS011;5880;52.342;9.662;2022-08-19T07:18:53;7.72;;;6.90;;
11646;SDS011;5880;52.342;9.662;2022-08-19T07:21:20;6.93;;;6.22;;
11646;SDS011;5880;52.342;9.662;2022-08-19T07:23:56;7.45;;;6.60;;
11646;SDS011;5880;52.342;9.662;2022-08-19T07:26:25;8.55;;;6.78;;
11646;SDS011;5880;52.342;9.662;2022-08-19T07:28:54;7.43;;;6.63;;
11646;SDS011;5880;52.342;9.662;2022-08-19T07:31:23;7.38;;;6.68;;
11646;SDS011;5880;52.342;9.662;2022-08-19T07:33:51;6.70;;;6.00;;
11646;SDS011;5880;52.342;9.662;2022-08-19T07:36:21;7.75;;;6.43;;
11646;SDS011;5880;52.342;9.662;2022-08-19T07:38:50;7.47;;;6.43;;
11646;SDS011;5880;52.342;9.662;2022-08-19T07:41:19;7.15;;;6.28;;
11646;SDS011;5880;52.342;9.662;2022-08-19T07:43:50;7.57;;;6.53;;
11646;SDS011;5880;52.342;9.662;2022-08-19T07:46:16;7.80;;;6.80;;
11646;SDS011;5880;52.342;9.662;2022-08-19T07:48:45;8.27;;;7.32;;
11646;SDS011;5880;52.342;9.662;2022-08-19T07:51:15;7.63;;;6.35;;
11646;SDS011;5880;52.342;9.662;2022-08-19T07:53:44;6.93;;;6.22;;
11646;SDS011;5880;52.342;9.662;2022-08-19T07:56:12;6.88;;;6.20;;
11646;SDS011;5880;52.342;9.662;2022-08-19T07:58:40;7.38;;;6.68;;
11646;SDS011;5880;52.342;9.662;2022-08-19T08:01:13;6.40;;;5.80;;
11646;SDS011;5880;52.342;9.662;2022-08-19T08:03:46;6.13;;;5.53;;
11646;SDS011;5880;52.342;9.662;2022-08-19T08:06:35;5.72;;;5.13;;
11646;SDS011;5880;52.342;9.662;2022-08-19T08:09:24;5.40;;;4.90;;
11646;SDS011;5880;52.342;9.662;2022-08-19T08:11:59;5.32;;;4.82;;
11646;SDS011;5880;52.342;9.662;2022-08-19T08:14:39;6.22;;;5.22;;
11646;SDS011;5880;52.342;9.662;2022-08-19T08:17:11;6.00;;;5.40;;
11646;SDS011;5880;52.342;9.662;2022-08-19T08:19:39;5.88;;;5.28;;
11646;SDS011;5880;52.342;9.662;2022-08-19T08:22:09;5.65;;;5.15;;
11646;SDS011;5880;52.342;9.662;2022-08-19T08:25:00;5.15;;;4.63;;
11646;SDS011;5880;52.342;9.662;2022-08-19T08:27:28;6.78;;;6.03;;
11646;SDS011;5880;52.342;9.662;2022-08-19T08:29:55;7.90;;;5.88;;
11646;SDS011;5880;52.342;9.662;2022-08-19T08:32:22;6.18;;;5.57;;
11646;SDS011;5880;52.342;9.662;2022-08-19T08:34:48;6.07;;;5.47;;
11646;SDS011;5880;52.342;9.662;2022-08-19T08:37:14;6.60;;;6.00;;
11646;SDS011;5880;52.342;9.662;2022-08-19T08:39:39;5.88;;;5.38;;
11646;SDS011;5880;52.342;9.662;2022-08-19T08:42:07;6.38;;;5.78;;
11646;SDS011;5880;52.342;9.662;2022-08-19T08:44:58;5.85;;;5.25;;
11646;SDS011;5880;52.342;9.662;2022-08-19T08:47:31;4.68;;;4.28;;
11646;SDS011;5880;52.342;9.662;2022-08-19T08:50:06;5.35;;;4.68;;
11646;SDS011;5880;52.342;9.662;2022-08-19T08:52:41;5.57;;;4.28;;
11646;SDS011;5880;52.342;9.662;2022-08-19T08:55:14;4.78;;;4.38;;
11646;SDS011;5880;52.342;9.662;2022-08-19T09:00:17;4.55;;;4.15;;
11646;SDS011;5880;52.342;9.662;2022-08-19T09:02:54;4.20;;;3.80;;
11646;SDS011;5880;52.342;9.662;2022-08-19T09:05:22;4.60;;;4.20;;
11646;SDS011;5880;52.342;9.662;2022-08-19T09:11:06;4.25;;;3.83;;
11646;SDS011;5880;52.342;9.662;2022-08-19T09:13:42;3.55;;;3.25;;
11646;SDS011;5880;52.342;9.662;2022-08-19T09:16:27;3.75;;;3.10;;
11646;SDS011;5880;52.342;9.662;2022-08-19T09:18:57;4.85;;;2.90;;
11646;SDS011;5880;52.342;9.662;2022-08-19T09:21:28;3.15;;;2.88;;
11646;SDS011;5880;52.342;9.662;2022-08-19T09:23:54;4.50;;;3.35;;
11646;SDS011;5880;52.342;9.662;2022-08-19T09:26:21;3.35;;;2.72;;
11646;SDS011;5880;52.342;9.662;2022-08-19T09:28:48;3.30;;;3.05;;
11646;SDS011;5880;52.342;9.662;2022-08-19T09:31:18;3.22;;;2.92;;
11646;SDS011;5880;52.342;9.662;2022-08-19T09:33:48;3.20;;;2.78;;
11646;SDS011;5880;52.342;9.662;2022-08-19T09:36:17;3.13;;;2.83;;
11646;SDS011;5880;52.342;9.662;2022-08-19T09:38:47;4.85;;;2.75;;
11646;SDS011;5880;52.342;9.662;2022-08-19T09:41:14;2.83;;;2.42;;
11646;SDS011;5880;52.342;9.662;2022-08-19T09:43:44;2.97;;;2.75;;
11646;SDS011;5880;52.342;9.662;2022-08-19T09:46:13;2.92;;;2.63;;
11646;SDS011;5880;52.342;9.662;2022-08-19T09:48:41;2.55;;;2.35;;
11646;SDS011;5880;52.342;9.662;2022-08-19T09:51:10;2.47;;;2.28;;
11646;SDS011;5880;52.342;9.662;2022-08-19T09:53:40;2.60;;;2.40;;
11646;SDS011;5880;52.342;9.662;2022-08-19T09:56:10;2.60;;;2.40;;
11646;SDS011;5880;52.342;9.662;2022-08-19T09:58:37;2.60;;;2.40;;
11646;SDS011;5880;52.342;9.662;2022-08-19T10:01:05;2.72;;;2.17;;
11646;SDS011;5880;52.342;9.662;2022-08-19T10:03:33;2.10;;;1.90;;
11646;SDS011;5880;52.342;9.662;2022-08-19T10:06:02;2.13;;;2.00;;
11646;SDS011;5880;52.342;9.662;2022-08-19T10:08:31;2.40;;;2.20;;
11646;SDS011;5880;52.342;9.662;2022-08-19T10:11:00;2.20;;;2.00;;
11646;SDS011;5880;52.342;9.662;2022-08-19T10:13:28;1.80;;;1.70;;
11646;SDS011;5880;52.342;9.662;2022-08-19T10:16:01;1.70;;;1.60;;
11646;SDS011;5880;52.342;9.662;2022-08-19T10:18:31;1.85;;;1.63;;
11646;SDS011;5880;52.342;9.662;2022-08-19T10:21:09;1.88;;;1.77;;
11646;SDS011;5880;52.342;9.662;2022-08-19T10:23:45;1.60;;;1.50;;
11646;SDS011;5880;52.342;9.662;2022-08-19T10:26:22;1.80;;;1.70;;
11646;SDS011;5880;52.342;9.662;2022-08-19T10:28:55;2.83;;;1.90;;
11646;SDS011;5880;52.342;9.662;2022-08-19T10:31:24;2.25;;;2.05;;
11646;SDS011;5880;52.342;9.662;2022-08-19T10:33:53;2.03;;;1.85;;
11646;SDS011;5880;52.342;9.662;2022-08-19T10:36:24;1.90;;;1.80;;
11646;SDS011;5880;52.342;9.662;2022-08-19T10:38:54;2.20;;;2.10;;
11646;SDS011;5880;52.342;9.662;2022-08-19T10:41:24;2.15;;;1.95;;
11646;SDS011;5880;52.342;9.662;2022-08-19T10:43:54;1.95;;;1.70;;
11646;SDS011;5880;52.342;9.662;2022-08-19T10:46:24;2.65;;;2.00;;
11646;SDS011;5880;52.342;9.662;2022-08-19T10:48:52;1.95;;;1.85;;
11646;SDS011;5880;52.342;9.662;2022-08-19T10:51:19;2.17;;;1.83;;
11646;SDS011;5880;52.342;9.662;2022-08-19T10:54:05;2.22;;;1.90;;
11646;SDS011;5880;52.342;9.662;2022-08-19T10:56:31;1.92;;;1.83;;
11646;SDS011;5880;52.342;9.662;2022-08-19T11:02:01;1.95;;;1.85;;
11646;SDS011;5880;52.342;9.662;2022-08-19T11:04:30;2.20;;;2.00;;
11646;SDS011;5880;52.342;9.662;2022-08-19T11:06:56;1.95;;;1.85;;
11646;SDS011;5880;52.342;9.662;2022-08-19T11:09:23;2.03;;;1.90;;
11646;SDS011;5880;52.342;9.662;2022-08-19T11:11:52;2.00;;;1.85;;
11646;SDS011;5880;52.342;9.662;2022-08-19T11:14:18;1.92;;;1.83;;
11646;SDS011;5880;52.342;9.662;2022-08-19T11:16:46;2.28;;;2.05;;
11646;SDS011;5880;52.342;9.662;2022-08-19T11:19:14;2.83;;;1.67;;
11646;SDS011;5880;52.342;9.662;2022-08-19T11:21:44;1.95;;;1.85;;
11646;SDS011;5880;52.342;9.662;2022-08-19T11:24:17;1.80;;;1.70;;
11646;SDS011;5880;52.342;9.662;2022-08-19T11:26:47;1.73;;;1.63;;
11646;SDS011;5880;52.342;9.662;2022-08-19T11:29:15;1.65;;;1.55;;
11646;SDS011;5880;52.342;9.662;2022-08-19T11:31:44;1.98;;;1.77;;
11646;SDS011;5880;52.342;9.662;2022-08-19T11:34:13;1.70;;;1.60;;
11646;SDS011;5880;52.342;9.662;2022-08-19T11:36:45;1.58;;;1.48;;
11646;SDS011;5880;52.342;9.662;2022-08-19T11:39:13;1.60;;;1.50;;
11646;SDS011;5880;52.342;9.662;2022-08-19T11:41:42;1.60;;;1.50;;
11646;SDS011;5880;52.342;9.662;2022-08-19T11:44:07;1.60;;;1.50;;
11646;SDS011;5880;52.342;9.662;2022-08-19T11:46:34;1.95;;;1.77;;
11646;SDS011;5880;52.342;9.662;2022-08-19T11:49:02;1.70;;;1.52;;
11646;SDS011;5880;52.342;9.662;2022-08-19T11:51:30;2.20;;;1.40;;
11646;SDS011;5880;52.342;9.662;2022-08-19T11:53:57;2.13;;;1.40;;
11646;SDS011;5880;52.342;9.662;2022-08-19T11:56:25;1.70;;;1.60;;
11646;SDS011;5880;52.342;9.662;2022-08-19T11:58:53;1.50;;;1.40;;
11646;SDS011;5880;52.342;9.662;2022-08-19T12:01:22;1.60;;;1.50;;
11646;SDS011;5880;52.342;9.662;2022-08-19T12:03:50;2.63;;;1.70;;
11646;SDS011;5880;52.342;9.662;2022-08-19T12:06:20;1.38;;;1.30;;
11646;SDS011;5880;52.342;9.662;2022-08-19T12:08:55;1.63;;;1.52;;
11646;SDS011;5880;52.342;9.662;2022-08-19T12:11:21;1.50;;;1.40;;
11646;SDS011;5880;52.342;9.662;2022-08-19T12:13:48;2.53;;;1.70;;
11646;SDS011;5880;52.342;9.662;2022-08-19T12:16:16;1.60;;;1.50;;
11646;SDS011;5880;52.342;9.662;2022-08-19T12:18:51;1.45;;;1.35;;
11646;SDS011;5880;52.342;9.662;2022-08-19T12:21:19;2.38;;;1.55;;
11646;SDS011;5880;52.342;9.662;2022-08-19T12:23:50;1.73;;;1.42;;
11646;SDS011;5880;52.342;9.662;2022-08-19T12:26:17;1.45;;;1.30;;
11646;SDS011;5880;52.342;9.662;2022-08-19T12:28:42;1.55;;;1.45;;
11646;SDS011;5880;52.342;9.662;2022-08-19T12:31:09;1.40;;;1.20;;
11646;SDS011;5880;52.342;9.662;2022-08-19T12:33:39;1.80;;;1.60;;
11646;SDS011;5880;52.342;9.662;2022-08-19T12:36:07;1.38;;;1.27;;
11646;SDS011;5880;52.342;9.662;2022-08-19T12:38:36;1.88;;;1.40;;
11646;SDS011;5880;52.342;9.662;2022-08-19T12:41:03;4.00;;;1.40;;
11646;SDS011;5880;52.342;9.662;2022-08-19T12:43:31;1.40;;;1.30;;
11646;SDS011;5880;52.342;9.662;2022-08-19T12:45:58;1.60;;;1.50;;
11646;SDS011;5880;52.342;9.662;2022-08-19T12:48:24;1.20;;;1.10;;
11646;SDS011;5880;52.342;9.662;2022-08-19T12:50:49;1.58;;;1.48;;
11646;SDS011;5880;52.342;9.662;2022-08-19T12:53:15;1.40;;;1.30;;
11646;SDS011;5880;52.342;9.662;2022-08-19T12:55:41;1.48;;;1.38;;
11646;SDS011;5880;52.342;9.662;2022-08-19T12:58:10;2.03;;;1.40;;
11646;SDS011;5880;52.342;9.662;2022-08-19T13:00:37;2.15;;;1.30;;
11646;SDS011;5880;52.342;9.662;2022-08-19T13:03:03;1.45;;;1.30;;
11646;SDS011;5880;52.342;9.662;2022-08-19T13:05:29;1.33;;;1.23;;
11646;SDS011;5880;52.342;9.662;2022-08-19T13:07:58;1.30;;;1.20;;
11646;SDS011;5880;52.342;9.662;2022-08-19T13:10:26;2.17;;;1.40;;
11646;SDS011;5880;52.342;9.662;2022-08-19T13:13:00;1.40;;;1.30;;
11646;SDS011;5880;52.342;9.662;2022-08-19T13:15:28;1.33;;;1.23;;
11646;SDS011;5880;52.342;9.662;2022-08-19T13:17:57;1.15;;;1.10;;
11646;SDS011;5880;52.342;9.662;2022-08-19T13:20:23;2.28;;;1.42;;
11646;SDS011;5880;52.342;9.662;2022-08-19T13:22:50;1.40;;;1.30;;
11646;SDS011;5880;52.342;9.662;2022-08-19T13:25:16;1.20;;;1.10;;
11646;SDS011;5880;52.342;9.662;2022-08-19T13:27:44;1.40;;;1.30;;
11646;SDS011;5880;52.342;9.662;2022-08-19T13:30:12;1.00;;;1.00;;
11646;SDS011;5880;52.342;9.662;2022-08-19T13:32:59;2.65;;;1.02;;
11646;SDS011;5880;52.342;9.662;2022-08-19T13:35:46;1.40;;;1.30;;
11646;SDS011;5880;52.342;9.662;2022-08-19T13:38:16;1.30;;;1.20;;
11646;SDS011;5880;52.342;9.662;2022-08-19T13:40:45;1.23;;;1.15;;
11646;SDS011;5880;52.342;9.662;2022-08-19T13:43:12;1.05;;;1.00;;
11646;SDS011;5880;52.342;9.662;2022-08-19T13:45:38;1.10;;;1.10;;
11646;SDS011;5880;52.342;9.662;2022-08-19T13:48:05;1.30;;;1.20;;
11646;SDS011;5880;52.342;9.662;2022-08-19T13:50:33;1.10;;;1.10;;
11646;SDS011;5880;52.342;9.662;2022-08-19T13:53:07;1.20;;;1.10;;
11646;SDS011;5880;52.342;9.662;2022-08-19T13:55:35;1.25;;;1.25;;
11646;SDS011;5880;52.342;9.662;2022-08-19T13:58:04;1.58;;;1.10;;
11646;SDS011;5880;52.342;9.662;2022-08-19T14:00:32;1.23;;;1.13;;
11646;SDS011;5880;52.342;9.662;2022-08-19T14:03:02;1.05;;;1.00;;
11646;SDS011;5880;52.342;9.662;2022-08-19T14:05:29;1.27;;;1.08;;
11646;SDS011;5880;52.342;9.662;2022-08-19T14:07:56;1.35;;;1.25;;
11646;SDS011;5880;52.342;9.662;2022-08-19T14:10:23;0.82;;;0.82;;
11646;SDS011;5880;52.342;9.662;2022-08-19T14:12:57;1.10;;;1.10;;
11646;SDS011;5880;52.342;9.662;2022-08-19T14:15:25;1.02;;;1.00;;
11646;SDS011;5880;52.342;9.662;2022-08-19T14:17:52;1.15;;;1.08;;
11646;SDS011;5880;52.342;9.662;2022-08-19T14:20:18;0.95;;;0.95;;
11646;SDS011;5880;52.342;9.662;2022-08-19T14:22:45;1.30;;;1.20;;
11646;SDS011;5880;52.342;9.662;2022-08-19T14:25:15;1.13;;;1.08;;
11646;SDS011;5880;52.342;9.662;2022-08-19T14:27:47;1.77;;;1.08;;
11646;SDS011;5880;52.342;9.662;2022-08-19T14:30:15;1.30;;;1.20;;
11646;SDS011;5880;52.342;9.662;2022-08-19T14:32:47;1.10;;;1.00;;
11646;SDS011;5880;52.342;9.662;2022-08-19T14:35:13;1.20;;;1.10;;
11646;SDS011;5880;52.342;9.662;2022-08-19T14:37:41;1.10;;;1.10;;
11646;SDS011;5880;52.342;9.662;2022-08-19T14:40:09;1.00;;;1.00;;
11646;SDS011;5880;52.342;9.662;2022-08-19T14:42:36;1.20;;;1.10;;
11646;SDS011;5880;52.342;9.662;2022-08-19T14:45:02;1.17;;;1.00;;
11646;SDS011;5880;52.342;9.662;2022-08-19T14:47:30;0.98;;;0.93;;
11646;SDS011;5880;52.342;9.662;2022-08-19T14:49:56;1.92;;;1.30;;
11646;SDS011;5880;52.342;9.662;2022-08-19T14:52:21;2.38;;;1.10;;
11646;SDS011;5880;52.342;9.662;2022-08-19T14:54:47;1.15;;;1.05;;
11646;SDS011;5880;52.342;9.662;2022-08-19T14:57:13;1.00;;;0.95;;
11646;SDS011;5880;52.342;9.662;2022-08-19T14:59:41;1.10;;;1.00;;
11646;SDS011;5880;52.342;9.662;2022-08-19T15:02:08;1.10;;;1.00;;
11646;SDS011;5880;52.342;9.662;2022-08-19T15:04:34;1.30;;;1.20;;
11646;SDS011;5880;52.342;9.662;2022-08-19T15:07:00;1.17;;;1.10;;
11646;SDS011;5880;52.342;9.662;2022-08-19T15:09:27;0.95;;;0.95;;
11646;SDS011;5880;52.342;9.662;2022-08-19T15:11:52;1.23;;;1.15;;
11646;SDS011;5880;52.342;9.662;2022-08-19T15:14:18;1.13;;;1.10;;
11646;SDS011;5880;52.342;9.662;2022-08-19T15:16:45;1.23;;;1.10;;
11646;SDS011;5880;52.342;9.662;2022-08-19T15:19:11;1.63;;;1.30;;
11646;SDS011;5880;52.342;9.662;2022-08-19T15:21:37;2.00;;;1.25;;
11646;SDS011;5880;52.342;9.662;2022-08-19T15:24:03;1.30;;;1.20;;
11646;SDS011;5880;52.342;9.662;2022-08-19T15:26:30;1.20;;;1.10;;